createdAt,value
2022-08-18T00:05:06.661Z,18.90
2022-08-18T00:12:17.546Z,18.90
2022-08-18T00:19:18.489Z,18.80
2022-08-18T00:26:19.275Z,18.70
2022-08-18T00:33:20.212Z,18.60
2022-08-18T00:40:24.294Z,18.60
2022-08-18T00:47:36.448Z,18.50
2022-08-18T00:54:50.542Z,18.50
2022-08-18T01:02:16.299Z,18.40
2022-08-18T01:09:22.673Z,18.40
2022-08-18T01:16:56.603Z,18.30
2022-08-18T01:24:12.969Z,18.20
2022-08-18T01:31:32.621Z,18.10
2022-08-18T01:38:33.310Z,18.00
2022-08-18T01:45:34.577Z,17.90
2022-08-18T01:52:35.473Z,17.90
2022-08-18T01:59:36.171Z,17.90
2022-08-18T02:06:36.999Z,17.80
2022-08-18T02:13:40.272Z,17.70
2022-08-18T02:20:40.887Z,17.70
2022-08-18T02:27:41.197Z,17.60
2022-08-18T02:34:42.649Z,17.60
2022-08-18T02:41:43.300Z,17.50
2022-08-18T02:48:43.663Z,17.40
2022-08-18T02:55:44.172Z,17.30
2022-08-18T03:02:49.021Z,17.30
2022-08-18T03:09:49.254Z,17.20
2022-08-18T03:16:54.211Z,17.20
2022-08-18T03:24:01.187Z,17.20
2022-08-18T03:31:03.146Z,17.30
2022-08-18T03:38:04.705Z,17.20
2022-08-18T03:45:12.505Z,17.30
2022-08-18T03:52:18.003Z,17.30
2022-08-18T03:59:24.060Z,17.30
2022-08-18T04:06:29.852Z,17.30
2022-08-18T04:13:36.146Z,17.30
2022-08-18T04:20:36.470Z,17.30
2022-08-18T04:27:39.441Z,17.40
2022-08-18T04:34:39.960Z,17.40
2022-08-18T04:41:43.266Z,17.50
2022-08-18T04:48:43.794Z,17.50
2022-08-18T04:55:52.378Z,17.50
2022-08-18T05:02:54.358Z,17.60
2022-08-18T05:09:55.426Z,17.60
2022-08-18T05:16:59.344Z,17.70
2022-08-18T05:24:00.760Z,17.70
2022-08-18T05:31:10.625Z,17.80
2022-08-18T05:38:22.451Z,17.90
2022-08-18T05:45:23.622Z,18.00
2022-08-18T05:52:40.341Z,18.10
2022-08-18T05:59:42.992Z,18.20
2022-08-18T06:06:47.618Z,18.30
2022-08-18T06:13:49.884Z,18.40
2022-08-18T06:21:28.926Z,18.50
2022-08-18T06:28:52.317Z,18.70
2022-08-18T06:36:00.626Z,18.80
2022-08-18T06:43:02.340Z,18.90
2022-08-18T06:50:08.313Z,19.00
2022-08-18T06:57:22.936Z,19.10
2022-08-18T07:04:42.759Z,19.20
2022-08-18T07:12:02.911Z,19.20
2022-08-18T07:19:16.398Z,19.30
2022-08-18T07:26:18.157Z,19.20
2022-08-18T07:33:24.818Z,19.20
2022-08-18T07:40:35.022Z,19.20
2022-08-18T07:48:15.927Z,19.20
2022-08-18T07:55:28.220Z,19.10
2022-08-18T08:02:54.790Z,19.10
2022-08-18T08:10:04.673Z,19.10
2022-08-18T08:17:32.502Z,19.20
2022-08-18T08:25:22.427Z,19.30
2022-08-18T08:32:35.557Z,19.40
2022-08-18T08:39:45.305Z,19.50
2022-08-18T08:46:55.321Z,19.60
2022-08-18T08:54:17.243Z,19.70
2022-08-18T09:01:37.781Z,19.80
2022-08-18T09:09:06.190Z,20.00
2022-08-18T09:16:21.753Z,20.20
2022-08-18T09:23:27.590Z,20.40
2022-08-18T09:30:42.970Z,20.60
2022-08-18T09:38:20.499Z,21.10
2022-08-18T09:45:33.781Z,21.40
2022-08-18T09:52:37.291Z,21.70
2022-08-18T09:59:38.081Z,22.00
2022-08-18T10:06:39.103Z,22.20
2022-08-18T10:14:12.154Z,22.20
2022-08-18T10:21:23.060Z,22.60
2022-08-18T10:28:54.194Z,22.80
2022-08-18T10:35:59.693Z,22.70
2022-08-18T10:43:45.801Z,22.90
2022-08-18T10:50:58.617Z,23.20
2022-08-18T10:58:30.535Z,23.40
2022-08-18T11:05:31.870Z,23.20
2022-08-18T11:12:52.500Z,23.30
2022-08-18T11:19:54.387Z,23.40
2022-08-18T11:27:04.533Z,23.80
2022-08-18T11:34:19.920Z,23.80
2022-08-18T11:41:48.015Z,24.00
2022-08-18T11:48:52.658Z,24.10
2022-08-18T11:56:13.419Z,24.20
2022-08-18T12:03:28.558Z,24.20
2022-08-18T12:10:29.677Z,24.10
2022-08-18T12:17:31.804Z,24.10
2022-08-18T12:24:36.911Z,24.20
2022-08-18T12:31:42.578Z,24.50
2022-08-18T12:38:52.144Z,24.70
2022-08-18T12:45:58.222Z,24.90
2022-08-18T12:52:58.568Z,25.00
2022-08-18T12:59:59.262Z,25.20
2022-08-18T13:07:01.950Z,25.60
2022-08-18T13:14:08.674Z,26.00
2022-08-18T13:21:11.460Z,26.50
2022-08-18T13:28:11.880Z,26.20
2022-08-18T13:35:14.758Z,26.20
2022-08-18T13:42:26.512Z,26.30
2022-08-18T13:49:30.707Z,26.20
2022-08-18T13:56:31.842Z,25.80
2022-08-18T14:03:46.778Z,26.00
2022-08-18T14:10:52.166Z,25.90
2022-08-18T14:17:52.698Z,25.60
2022-08-18T14:25:12.970Z,25.40
2022-08-18T14:32:18.087Z,25.30
2022-08-18T14:39:18.777Z,25.60
2022-08-18T14:53:24.980Z,26.40
2022-08-18T15:00:27.950Z,26.30
2022-08-18T15:07:28.531Z,26.60
2022-08-18T15:14:34.751Z,26.90
2022-08-18T15:21:54.006Z,27.10
2022-08-18T15:28:55.489Z,27.10
2022-08-18T15:36:04.460Z,27.40
2022-08-18T15:43:10.576Z,27.50
2022-08-18T15:50:22.452Z,27.30
2022-08-18T15:57:39.212Z,27.30
2022-08-18T16:04:41.339Z,27.40
2022-08-18T16:11:45.158Z,27.40
2022-08-18T16:18:46.113Z,27.30
2022-08-18T16:25:46.163Z,27.10
2022-08-18T16:32:48.085Z,26.90
2022-08-18T16:39:48.853Z,26.70
2022-08-18T16:46:51.861Z,26.60
2022-08-18T16:53:53.347Z,26.60
2022-08-18T17:01:18.654Z,26.50
2022-08-18T17:08:19.685Z,26.20
2022-08-18T17:15:20.126Z,25.90
2022-08-18T17:22:20.520Z,25.80
2022-08-18T17:29:46.177Z,25.70
2022-08-18T17:36:55.784Z,25.50
2022-08-18T17:44:00.725Z,25.40
2022-08-18T17:51:30.071Z,25.30
2022-08-18T17:58:40.594Z,25.30
2022-08-18T18:05:54.586Z,25.20
2022-08-18T18:13:12.340Z,25.20
2022-08-18T18:20:24.515Z,25.10
2022-08-18T18:27:27.855Z,25.00
2022-08-18T18:34:33.015Z,24.90
2022-08-18T18:41:36.894Z,24.80
2022-08-18T18:49:07.802Z,24.80
2022-08-18T18:56:29.897Z,25.40
2022-08-18T19:03:45.851Z,25.60
2022-08-18T19:11:01.399Z,25.20
2022-08-18T19:18:13.798Z,24.80
2022-08-18T19:25:17.347Z,24.40
2022-08-18T19:32:24.125Z,24.20
2022-08-18T19:39:35.166Z,23.90
2022-08-18T19:46:47.841Z,23.70
2022-08-18T19:53:53.881Z,23.60
2022-08-18T20:01:04.333Z,23.40
2022-08-18T20:08:37.097Z,23.40
2022-08-18T20:16:12.895Z,23.30
2022-08-18T20:23:33.067Z,23.20
2022-08-18T20:31:12.439Z,23.10
2022-08-18T20:38:28.999Z,23.00
2022-08-18T20:45:34.986Z,22.90
2022-08-18T20:53:12.838Z,22.70
2022-08-18T21:00:22.657Z,22.60
2022-08-18T21:07:37.431Z,22.40
2022-08-18T21:14:38.264Z,22.20
2022-08-18T21:21:44.020Z,22.20
2022-08-18T21:28:49.421Z,22.00
2022-08-18T21:35:49.961Z,21.70
2022-08-18T21:42:52.229Z,21.50
2022-08-18T21:50:00.407Z,21.30
2022-08-18T21:57:24.185Z,21.10
2022-08-18T22:04:37.869Z,20.90
2022-08-18T22:12:01.380Z,20.70
2022-08-18T22:19:11.868Z,20.60
2022-08-18T22:26:23.747Z,20.60
2022-08-18T22:33:24.513Z,20.50
2022-08-18T22:40:24.969Z,20.50
2022-08-18T22:47:25.888Z,20.50
2022-08-18T22:54:26.634Z,20.40
2022-08-18T23:01:27.790Z,20.30
2022-08-18T23:08:31.790Z,20.20
2022-08-18T23:15:48.813Z,20.10
2022-08-18T23:22:49.585Z,20.00
2022-08-18T23:29:49.886Z,19.90
2022-08-18T23:37:01.157Z,19.90
2022-08-18T23:44:01.912Z,19.80
2022-08-18T23:51:03.007Z,19.70
2022-08-18T23:58:04.442Z,19.50
